sensor_id;sensor_type;location;lat;lon;timestamp;P1;durP1;ratioP1;P2;durP2;ratioP2
5454;SDS011;2750;49.050;9.250;2023-02-28T00:02:36;6.87;;;4.30;;
5454;SDS011;2750;49.050;9.250;2023-02-28T00:07:38;5.83;;;4.07;;
5454;SDS011;2750;49.050;9.250;2023-02-28T00:12:40;5.17;;;3.90;;
5454;SDS011;2750;49.050;9.250;2023-02-28T00:17:43;4.10;;;2.90;;
5454;SDS011;2750;49.050;9.250;2023-02-28T00:22:45;4.50;;;2.90;;
5454;SDS011;2750;49.050;9.250;2023-02-28T00:27:48;4.97;;;4.07;;
5454;SDS011;2750;49.050;9.250;2023-02-28T00:32:52;3.80;;;3.50;;
5454;SDS011;2750;49.050;9.250;2023-02-28T00:37:53;3.40;;;3.10;;
5454;SDS011;2750;49.050;9.250;2023-02-28T00:42:55;3.60;;;3.10;;
5454;SDS011;2750;49.050;9.250;2023-02-28T00:47:58;5.20;;;3.57;;
5454;SDS011;2750;49.050;9.250;2023-02-28T00:53:00;3.70;;;3.40;;
5454;SDS011;2750;49.050;9.250;2023-02-28T00:58:01;4.37;;;2.80;;
5454;SDS011;2750;49.050;9.250;2023-02-28T01:03:04;4.43;;;3.60;;
5454;SDS011;2750;49.050;9.250;2023-02-28T01:08:06;4.30;;;3.67;;
5454;SDS011;2750;49.050;9.250;2023-02-28T01:13:07;4.53;;;4.13;;
5454;SDS011;2750;49.050;9.250;2023-02-28T01:18:10;5.93;;;3.90;;
5454;SDS011;2750;49.050;9.250;2023-02-28T01:23:11;3.87;;;3.03;;
5454;SDS011;2750;49.050;9.250;2023-02-28T01:28:13;4.87;;;3.90;;
5454;SDS011;2750;49.050;9.250;2023-02-28T01:33:16;7.87;;;2.70;;
5454;SDS011;2750;49.050;9.250;2023-02-28T01:38:17;7.97;;;3.83;;
5454;SDS011;2750;49.050;9.250;2023-02-28T01:43:20;4.47;;;3.10;;
5454;SDS011;2750;49.050;9.250;2023-02-28T01:48:26;3.87;;;2.73;;
5454;SDS011;2750;49.050;9.250;2023-02-28T01:53:32;4.70;;;3.60;;
5454;SDS011;2750;49.050;9.250;2023-02-28T01:58:38;6.93;;;4.43;;
5454;SDS011;2750;49.050;9.250;2023-02-28T02:03:41;5.43;;;4.10;;
5454;SDS011;2750;49.050;9.250;2023-02-28T02:08:42;4.10;;;3.40;;
5454;SDS011;2750;49.050;9.250;2023-02-28T02:14:03;3.47;;;3.17;;
5454;SDS011;2750;49.050;9.250;2023-02-28T02:19:36;6.03;;;4.73;;
5454;SDS011;2750;49.050;9.250;2023-02-28T02:25:09;4.57;;;3.83;;
5454;SDS011;2750;49.050;9.250;2023-02-28T02:35:47;3.53;;;3.13;;
5454;SDS011;2750;49.050;9.250;2023-02-28T02:40:57;6.53;;;4.47;;
5454;SDS011;2750;49.050;9.250;2023-02-28T02:46:08;4.87;;;3.83;;
5454;SDS011;2750;49.050;9.250;2023-02-28T02:51:16;2.67;;;2.07;;
5454;SDS011;2750;49.050;9.250;2023-02-28T02:56:23;6.83;;;5.17;;
5454;SDS011;2750;49.050;9.250;2023-02-28T03:01:28;5.40;;;4.13;;
5454;SDS011;2750;49.050;9.250;2023-02-28T03:06:34;9.17;;;4.20;;
5454;SDS011;2750;49.050;9.250;2023-02-28T03:11:36;6.70;;;5.07;;
5454;SDS011;2750;49.050;9.250;2023-02-28T03:16:47;4.60;;;3.60;;
5454;SDS011;2750;49.050;9.250;2023-02-28T03:22:03;6.13;;;5.33;;
5454;SDS011;2750;49.050;9.250;2023-02-28T03:27:15;11.03;;;5.90;;
5454;SDS011;2750;49.050;9.250;2023-02-28T03:32:23;6.03;;;4.27;;
5454;SDS011;2750;49.050;9.250;2023-02-28T03:37:29;6.67;;;5.17;;
5454;SDS011;2750;49.050;9.250;2023-02-28T03:42:35;7.83;;;4.97;;
5454;SDS011;2750;49.050;9.250;2023-02-28T03:47:40;6.23;;;4.60;;
5454;SDS011;2750;49.050;9.250;2023-02-28T03:52:48;7.17;;;5.20;;
5454;SDS011;2750;49.050;9.250;2023-02-28T03:57:55;7.57;;;5.33;;
5454;SDS011;2750;49.050;9.250;2023-02-28T04:03:02;5.37;;;4.83;;
5454;SDS011;2750;49.050;9.250;2023-02-28T04:08:06;6.10;;;4.80;;
5454;SDS011;2750;49.050;9.250;2023-02-28T04:13:09;6.53;;;5.57;;
5454;SDS011;2750;49.050;9.250;2023-02-28T04:18:10;7.87;;;5.30;;
5454;SDS011;2750;49.050;9.250;2023-02-28T04:23:13;8.47;;;5.30;;
5454;SDS011;2750;49.050;9.250;2023-02-28T04:28:15;6.77;;;4.80;;
5454;SDS011;2750;49.050;9.250;2023-02-28T04:33:16;8.37;;;5.40;;
5454;SDS011;2750;49.050;9.250;2023-02-28T04:38:19;4.37;;;3.67;;
5454;SDS011;2750;49.050;9.250;2023-02-28T04:43:20;8.20;;;5.63;;
5454;SDS011;2750;49.050;9.250;2023-02-28T04:48:22;7.67;;;4.87;;
5454;SDS011;2750;49.050;9.250;2023-02-28T04:53:25;7.00;;;5.73;;
5454;SDS011;2750;49.050;9.250;2023-02-28T04:58:28;8.13;;;5.57;;
5454;SDS011;2750;49.050;9.250;2023-02-28T05:03:30;8.63;;;5.43;;
5454;SDS011;2750;49.050;9.250;2023-02-28T05:08:32;10.30;;;5.87;;
5454;SDS011;2750;49.050;9.250;2023-02-28T05:13:34;8.23;;;5.47;;
5454;SDS011;2750;49.050;9.250;2023-02-28T05:18:36;6.83;;;5.07;;
5454;SDS011;2750;49.050;9.250;2023-02-28T05:23:39;7.70;;;5.57;;
5454;SDS011;2750;49.050;9.250;2023-02-28T05:28:40;7.90;;;5.53;;
5454;SDS011;2750;49.050;9.250;2023-02-28T05:33:42;7.50;;;5.50;;
5454;SDS011;2750;49.050;9.250;2023-02-28T05:38:46;4.00;;;3.43;;
5454;SDS011;2750;49.050;9.250;2023-02-28T05:43:49;6.40;;;5.37;;
5454;SDS011;2750;49.050;9.250;2023-02-28T05:48:50;8.57;;;5.97;;
5454;SDS011;2750;49.050;9.250;2023-02-28T05:53:53;6.20;;;5.27;;
5454;SDS011;2750;49.050;9.250;2023-02-28T05:58:55;7.07;;;5.67;;
5454;SDS011;2750;49.050;9.250;2023-02-28T06:03:56;8.43;;;5.67;;
5454;SDS011;2750;49.050;9.250;2023-02-28T06:09:00;7.67;;;5.27;;
5454;SDS011;2750;49.050;9.250;2023-02-28T06:14:02;7.10;;;5.77;;
5454;SDS011;2750;49.050;9.250;2023-02-28T06:19:04;6.77;;;5.23;;
5454;SDS011;2750;49.050;9.250;2023-02-28T06:24:07;6.53;;;5.07;;
5454;SDS011;2750;49.050;9.250;2023-02-28T06:29:09;7.03;;;5.17;;
5454;SDS011;2750;49.050;9.250;2023-02-28T06:34:11;10.33;;;6.83;;
5454;SDS011;2750;49.050;9.250;2023-02-28T06:39:14;10.03;;;4.57;;
5454;SDS011;2750;49.050;9.250;2023-02-28T06:44:16;9.73;;;6.13;;
5454;SDS011;2750;49.050;9.250;2023-02-28T06:49:18;8.27;;;5.43;;
5454;SDS011;2750;49.050;9.250;2023-02-28T06:54:21;10.10;;;6.40;;
5454;SDS011;2750;49.050;9.250;2023-02-28T06:59:23;7.27;;;5.67;;
5454;SDS011;2750;49.050;9.250;2023-02-28T07:04:24;7.83;;;5.80;;
5454;SDS011;2750;49.050;9.250;2023-02-28T07:09:27;9.27;;;6.37;;
5454;SDS011;2750;49.050;9.250;2023-02-28T07:14:30;7.87;;;6.33;;
5454;SDS011;2750;49.050;9.250;2023-02-28T07:19:31;10.53;;;6.83;;
5454;SDS011;2750;49.050;9.250;2023-02-28T07:24:34;8.60;;;6.10;;
5454;SDS011;2750;49.050;9.250;2023-02-28T07:29:35;7.70;;;5.70;;
5454;SDS011;2750;49.050;9.250;2023-02-28T07:34:38;8.63;;;7.17;;
5454;SDS011;2750;49.050;9.250;2023-02-28T07:39:41;9.50;;;6.83;;
5454;SDS011;2750;49.050;9.250;2023-02-28T07:44:43;9.30;;;6.73;;
5454;SDS011;2750;49.050;9.250;2023-02-28T07:49:45;12.13;;;7.47;;
5454;SDS011;2750;49.050;9.250;2023-02-28T07:54:48;9.70;;;7.03;;
5454;SDS011;2750;49.050;9.250;2023-02-28T07:59:50;8.30;;;6.90;;
5454;SDS011;2750;49.050;9.250;2023-02-28T08:04:51;9.60;;;7.10;;
5454;SDS011;2750;49.050;9.250;2023-02-28T08:09:54;7.57;;;5.40;;
5454;SDS011;2750;49.050;9.250;2023-02-28T08:14:56;7.63;;;6.60;;
5454;SDS011;2750;49.050;9.250;2023-02-28T08:19:57;10.17;;;7.07;;
5454;SDS011;2750;49.050;9.250;2023-02-28T08:25:00;10.47;;;7.97;;
5454;SDS011;2750;49.050;9.250;2023-02-28T08:30:02;11.80;;;7.57;;
5454;SDS011;2750;49.050;9.250;2023-02-28T08:35:04;7.87;;;5.97;;
5454;SDS011;2750;49.050;9.250;2023-02-28T08:40:08;7.97;;;6.10;;
5454;SDS011;2750;49.050;9.250;2023-02-28T08:45:11;8.53;;;6.67;;
5454;SDS011;2750;49.050;9.250;2023-02-28T08:50:12;10.27;;;7.40;;
5454;SDS011;2750;49.050;9.250;2023-02-28T08:55:16;11.57;;;7.67;;
5454;SDS011;2750;49.050;9.250;2023-02-28T09:00:18;9.17;;;6.93;;
5454;SDS011;2750;49.050;9.250;2023-02-28T09:05:20;9.63;;;7.70;;
5454;SDS011;2750;49.050;9.250;2023-02-28T09:10:23;8.10;;;5.47;;
5454;SDS011;2750;49.050;9.250;2023-02-28T09:15:24;9.03;;;6.37;;
5454;SDS011;2750;49.050;9.250;2023-02-28T09:20:26;9.70;;;7.90;;
5454;SDS011;2750;49.050;9.250;2023-02-28T09:25:29;22.30;;;13.07;;
5454;SDS011;2750;49.050;9.250;2023-02-28T09:30:30;12.60;;;9.80;;
5454;SDS011;2750;49.050;9.250;2023-02-28T09:35:32;11.03;;;9.07;;
5454;SDS011;2750;49.050;9.250;2023-02-28T09:40:36;12.53;;;8.87;;
5454;SDS011;2750;49.050;9.250;2023-02-28T09:45:40;10.07;;;7.63;;
5454;SDS011;2750;49.050;9.250;2023-02-28T09:50:45;9.90;;;8.67;;
5454;SDS011;2750;49.050;9.250;2023-02-28T09:55:51;10.50;;;7.67;;
5454;SDS011;2750;49.050;9.250;2023-02-28T10:00:57;13.23;;;9.17;;
5454;SDS011;2750;49.050;9.250;2023-02-28T10:06:06;10.00;;;6.93;;
5454;SDS011;2750;49.050;9.250;2023-02-28T10:11:16;10.17;;;7.00;;
5454;SDS011;2750;49.050;9.250;2023-02-28T10:16:22;11.30;;;7.50;;
5454;SDS011;2750;49.050;9.250;2023-02-28T10:21:28;10.67;;;7.17;;
5454;SDS011;2750;49.050;9.250;2023-02-28T10:26:36;6.67;;;5.67;;
5454;SDS011;2750;49.050;9.250;2023-02-28T10:31:37;7.40;;;6.07;;
5454;SDS011;2750;49.050;9.250;2023-02-28T10:36:40;9.07;;;6.43;;
5454;SDS011;2750;49.050;9.250;2023-02-28T10:41:45;7.73;;;5.97;;
5454;SDS011;2750;49.050;9.250;2023-02-28T10:46:47;7.67;;;5.60;;
5454;SDS011;2750;49.050;9.250;2023-02-28T10:51:51;8.97;;;7.60;;
5454;SDS011;2750;49.050;9.250;2023-02-28T10:57:13;8.83;;;6.50;;
5454;SDS011;2750;49.050;9.250;2023-02-28T11:02:28;9.27;;;7.33;;
5454;SDS011;2750;49.050;9.250;2023-02-28T11:07:32;9.43;;;7.67;;
5454;SDS011;2750;49.050;9.250;2023-02-28T11:12:36;8.53;;;6.97;;
5454;SDS011;2750;49.050;9.250;2023-02-28T11:17:41;7.23;;;5.73;;
5454;SDS011;2750;49.050;9.250;2023-02-28T11:22:44;8.93;;;6.97;;
5454;SDS011;2750;49.050;9.250;2023-02-28T11:27:49;4.30;;;3.90;;
5454;SDS011;2750;49.050;9.250;2023-02-28T11:32:51;9.20;;;7.30;;
5454;SDS011;2750;49.050;9.250;2023-02-28T11:37:53;9.23;;;7.87;;
5454;SDS011;2750;49.050;9.250;2023-02-28T11:42:59;12.20;;;8.40;;
5454;SDS011;2750;49.050;9.250;2023-02-28T11:48:09;10.00;;;8.17;;
5454;SDS011;2750;49.050;9.250;2023-02-28T11:53:22;10.47;;;6.70;;
5454;SDS011;2750;49.050;9.250;2023-02-28T11:58:43;5.53;;;4.33;;
5454;SDS011;2750;49.050;9.250;2023-02-28T12:03:58;10.23;;;8.00;;
5454;SDS011;2750;49.050;9.250;2023-02-28T12:09:16;9.83;;;7.37;;
5454;SDS011;2750;49.050;9.250;2023-02-28T12:14:38;8.63;;;6.93;;
5454;SDS011;2750;49.050;9.250;2023-02-28T12:20:08;12.00;;;7.80;;
5454;SDS011;2750;49.050;9.250;2023-02-28T12:25:37;8.93;;;8.03;;
5454;SDS011;2750;49.050;9.250;2023-02-28T12:30:49;8.60;;;6.03;;
5454;SDS011;2750;49.050;9.250;2023-02-28T12:35:56;10.90;;;6.40;;
5454;SDS011;2750;49.050;9.250;2023-02-28T12:40:59;9.57;;;8.07;;
5454;SDS011;2750;49.050;9.250;2023-02-28T12:46:06;11.17;;;8.33;;
5454;SDS011;2750;49.050;9.250;2023-02-28T12:51:12;5.33;;;3.47;;
5454;SDS011;2750;49.050;9.250;2023-02-28T12:56:17;8.57;;;6.57;;
5454;SDS011;2750;49.050;9.250;2023-02-28T13:07:20;6.57;;;5.87;;
5454;SDS011;2750;49.050;9.250;2023-02-28T13:12:37;12.33;;;8.77;;
5454;SDS011;2750;49.050;9.250;2023-02-28T13:17:49;9.20;;;7.80;;
5454;SDS011;2750;49.050;9.250;2023-02-28T13:22:54;12.63;;;9.47;;
5454;SDS011;2750;49.050;9.250;2023-02-28T13:27:57;10.30;;;8.17;;
5454;SDS011;2750;49.050;9.250;2023-02-28T13:38:42;10.50;;;8.70;;
5454;SDS011;2750;49.050;9.250;2023-02-28T13:43:58;7.30;;;5.97;;
5454;SDS011;2750;49.050;9.250;2023-02-28T13:49:20;6.50;;;5.50;;
5454;SDS011;2750;49.050;9.250;2023-02-28T13:54:31;9.93;;;8.30;;
5454;SDS011;2750;49.050;9.250;2023-02-28T13:59:46;12.03;;;8.93;;
5454;SDS011;2750;49.050;9.250;2023-02-28T14:05:12;13.53;;;8.13;;
5454;SDS011;2750;49.050;9.250;2023-02-28T14:10:22;10.77;;;8.60;;
5454;SDS011;2750;49.050;9.250;2023-02-28T14:15:27;9.90;;;8.90;;
5454;SDS011;2750;49.050;9.250;2023-02-28T14:20:44;9.60;;;8.43;;
5454;SDS011;2750;49.050;9.250;2023-02-28T14:25:51;12.67;;;8.30;;
5454;SDS011;2750;49.050;9.250;2023-02-28T14:31:06;13.17;;;9.27;;
5454;SDS011;2750;49.050;9.250;2023-02-28T14:36:16;9.97;;;8.27;;
5454;SDS011;2750;49.050;9.250;2023-02-28T14:41:23;9.87;;;7.67;;
5454;SDS011;2750;49.050;9.250;2023-02-28T14:46:34;11.03;;;9.00;;
5454;SDS011;2750;49.050;9.250;2023-02-28T14:51:38;11.33;;;10.13;;
5454;SDS011;2750;49.050;9.250;2023-02-28T14:56:41;13.50;;;10.03;;
5454;SDS011;2750;49.050;9.250;2023-02-28T15:01:43;12.30;;;8.87;;
5454;SDS011;2750;49.050;9.250;2023-02-28T15:06:45;10.97;;;8.73;;
5454;SDS011;2750;49.050;9.250;2023-02-28T15:11:48;8.63;;;6.27;;
5454;SDS011;2750;49.050;9.250;2023-02-28T15:16:52;12.33;;;9.23;;
5454;SDS011;2750;49.050;9.250;2023-02-28T15:21:59;11.97;;;9.30;;
5454;SDS011;2750;49.050;9.250;2023-02-28T15:27:05;12.60;;;9.70;;
5454;SDS011;2750;49.050;9.250;2023-02-28T15:32:20;13.13;;;9.90;;
5454;SDS011;2750;49.050;9.250;2023-02-28T15:37:30;11.97;;;10.17;;
5454;SDS011;2750;49.050;9.250;2023-02-28T15:42:40;10.23;;;8.43;;
5454;SDS011;2750;49.050;9.250;2023-02-28T15:47:44;10.30;;;8.57;;
5454;SDS011;2750;49.050;9.250;2023-02-28T15:52:47;11.40;;;7.80;;
5454;SDS011;2750;49.050;9.250;2023-02-28T15:57:51;11.90;;;8.13;;
5454;SDS011;2750;49.050;9.250;2023-02-28T16:02:57;11.43;;;9.27;;
5454;SDS011;2750;49.050;9.250;2023-02-28T16:07:59;11.17;;;9.20;;
5454;SDS011;2750;49.050;9.250;2023-02-28T16:13:03;11.20;;;9.30;;
5454;SDS011;2750;49.050;9.250;2023-02-28T16:18:04;12.00;;;9.40;;
5454;SDS011;2750;49.050;9.250;2023-02-28T16:23:09;12.23;;;9.37;;
5454;SDS011;2750;49.050;9.250;2023-02-28T16:28:15;11.50;;;9.27;;
5454;SDS011;2750;49.050;9.250;2023-02-28T16:33:20;9.97;;;8.57;;
5454;SDS011;2750;49.050;9.250;2023-02-28T16:38:21;12.83;;;9.50;;
5454;SDS011;2750;49.050;9.250;2023-02-28T16:43:26;13.23;;;9.60;;
5454;SDS011;2750;49.050;9.250;2023-02-28T16:48:28;14.93;;;10.40;;
5454;SDS011;2750;49.050;9.250;2023-02-28T16:53:31;12.83;;;9.47;;
5454;SDS011;2750;49.050;9.250;2023-02-28T16:58:34;14.23;;;9.97;;
5454;SDS011;2750;49.050;9.250;2023-02-28T17:03:36;12.97;;;10.10;;
5454;SDS011;2750;49.050;9.250;2023-02-28T17:08:38;17.47;;;14.47;;
5454;SDS011;2750;49.050;9.250;2023-02-28T17:13:41;20.83;;;15.73;;
5454;SDS011;2750;49.050;9.250;2023-02-28T17:18:42;16.80;;;14.60;;
5454;SDS011;2750;49.050;9.250;2023-02-28T17:23:44;16.17;;;11.47;;
5454;SDS011;2750;49.050;9.250;2023-02-28T17:28:47;17.37;;;12.53;;
5454;SDS011;2750;49.050;9.250;2023-02-28T17:33:48;13.80;;;10.23;;
5454;SDS011;2750;49.050;9.250;2023-02-28T17:38:51;14.37;;;9.53;;
5454;SDS011;2750;49.050;9.250;2023-02-28T17:43:54;11.20;;;8.67;;
5454;SDS011;2750;49.050;9.250;2023-02-28T17:48:56;14.50;;;10.50;;
5454;SDS011;2750;49.050;9.250;2023-02-28T17:53:57;13.63;;;9.77;;
5454;SDS011;2750;49.050;9.250;2023-02-28T17:59:01;11.47;;;8.60;;
5454;SDS011;2750;49.050;9.250;2023-02-28T18:04:02;15.20;;;9.27;;
5454;SDS011;2750;49.050;9.250;2023-02-28T18:09:04;16.43;;;11.47;;
5454;SDS011;2750;49.050;9.250;2023-02-28T18:14:07;12.23;;;9.63;;
5454;SDS011;2750;49.050;9.250;2023-02-28T18:19:10;15.87;;;9.97;;
5454;SDS011;2750;49.050;9.250;2023-02-28T18:24:16;13.63;;;11.33;;
5454;SDS011;2750;49.050;9.250;2023-02-28T18:29:21;16.40;;;11.30;;
5454;SDS011;2750;49.050;9.250;2023-02-28T18:34:24;14.87;;;11.53;;
5454;SDS011;2750;49.050;9.250;2023-02-28T18:39:27;16.83;;;11.57;;
5454;SDS011;2750;49.050;9.250;2023-02-28T18:44:31;20.10;;;13.40;;
5454;SDS011;2750;49.050;9.250;2023-02-28T18:49:33;17.43;;;13.23;;
5454;SDS011;2750;49.050;9.250;2023-02-28T18:54:34;18.93;;;13.37;;
5454;SDS011;2750;49.050;9.250;2023-02-28T18:59:37;16.00;;;12.30;;
5454;SDS011;2750;49.050;9.250;2023-02-28T19:04:39;17.13;;;12.47;;
5454;SDS011;2750;49.050;9.250;2023-02-28T19:09:41;13.10;;;10.30;;
5454;SDS011;2750;49.050;9.250;2023-02-28T19:14:44;16.67;;;12.43;;
5454;SDS011;2750;49.050;9.250;2023-02-28T19:19:46;19.20;;;12.07;;
5454;SDS011;2750;49.050;9.250;2023-02-28T19:24:48;19.53;;;13.77;;
5454;SDS011;2750;49.050;9.250;2023-02-28T19:29:51;16.97;;;12.83;;
5454;SDS011;2750;49.050;9.250;2023-02-28T19:34:53;23.60;;;17.37;;
5454;SDS011;2750;49.050;9.250;2023-02-28T19:39:55;18.87;;;12.63;;
5454;SDS011;2750;49.050;9.250;2023-02-28T19:44:58;18.07;;;12.93;;
5454;SDS011;2750;49.050;9.250;2023-02-28T19:49:59;17.43;;;12.47;;
5454;SDS011;2750;49.050;9.250;2023-02-28T19:55:01;24.83;;;20.67;;
5454;SDS011;2750;49.050;9.250;2023-02-28T20:00:05;17.20;;;12.60;;
5454;SDS011;2750;49.050;9.250;2023-02-28T20:05:08;18.00;;;15.27;;
5454;SDS011;2750;49.050;9.250;2023-02-28T20:10:10;19.37;;;13.00;;
5454;SDS011;2750;49.050;9.250;2023-02-28T20:15:14;18.43;;;12.40;;
5454;SDS011;2750;49.050;9.250;2023-02-28T20:20:16;24.47;;;17.20;;
5454;SDS011;2750;49.050;9.250;2023-02-28T20:25:18;19.40;;;13.33;;
5454;SDS011;2750;49.050;9.250;2023-02-28T20:30:21;22.70;;;14.77;;
5454;SDS011;2750;49.050;9.250;2023-02-28T20:35:23;20.97;;;13.70;;
5454;SDS011;2750;49.050;9.250;2023-02-28T20:40:25;22.33;;;13.67;;
5454;SDS011;2750;49.050;9.250;2023-02-28T20:45:28;18.30;;;12.13;;
5454;SDS011;2750;49.050;9.250;2023-02-28T20:50:30;19.20;;;13.07;;
5454;SDS011;2750;49.050;9.250;2023-02-28T20:55:32;22.87;;;13.90;;
5454;SDS011;2750;49.050;9.250;2023-02-28T21:00:35;24.23;;;15.17;;
5454;SDS011;2750;49.050;9.250;2023-02-28T21:05:36;24.93;;;14.43;;
5454;SDS011;2750;49.050;9.250;2023-02-28T21:10:38;20.47;;;13.47;;
5454;SDS011;2750;49.050;9.250;2023-02-28T21:15:41;16.70;;;13.00;;
5454;SDS011;2750;49.050;9.250;2023-02-28T21:20:42;30.77;;;19.53;;
5454;SDS011;2750;49.050;9.250;2023-02-28T21:25:44;21.77;;;15.10;;
5454;SDS011;2750;49.050;9.250;2023-02-28T21:30:47;24.57;;;17.03;;
5454;SDS011;2750;49.050;9.250;2023-02-28T21:35:48;21.30;;;13.20;;
5454;SDS011;2750;49.050;9.250;2023-02-28T21:40:51;27.67;;;16.53;;
5454;SDS011;2750;49.050;9.250;2023-02-28T21:45:54;30.87;;;16.30;;
5454;SDS011;2750;49.050;9.250;2023-02-28T21:50:56;17.23;;;12.43;;
5454;SDS011;2750;49.050;9.250;2023-02-28T21:56:00;21.47;;;13.23;;
5454;SDS011;2750;49.050;9.250;2023-02-28T22:01:04;20.87;;;14.23;;
5454;SDS011;2750;49.050;9.250;2023-02-28T22:06:08;18.73;;;13.20;;
5454;SDS011;2750;49.050;9.250;2023-02-28T22:11:11;19.63;;;12.37;;
5454;SDS011;2750;49.050;9.250;2023-02-28T22:16:16;20.27;;;13.30;;
5454;SDS011;2750;49.050;9.250;2023-02-28T22:21:20;18.23;;;11.17;;
5454;SDS011;2750;49.050;9.250;2023-02-28T22:26:23;17.93;;;11.90;;
5454;SDS011;2750;49.050;9.250;2023-02-28T22:31:26;18.47;;;12.13;;
5454;SDS011;2750;49.050;9.250;2023-02-28T22:36:29;16.17;;;12.30;;
5454;SDS011;2750;49.050;9.250;2023-02-28T22:41:31;18.53;;;12.57;;
5454;SDS011;2750;49.050;9.250;2023-02-28T22:46:34;18.93;;;11.90;;
5454;SDS011;2750;49.050;9.250;2023-02-28T22:51:36;16.03;;;11.53;;
5454;SDS011;2750;49.050;9.250;2023-02-28T22:56:37;15.53;;;10.97;;
5454;SDS011;2750;49.050;9.250;2023-02-28T23:01:40;17.50;;;11.53;;
5454;SDS011;2750;49.050;9.250;2023-02-28T23:06:43;17.90;;;11.73;;
5454;SDS011;2750;49.050;9.250;2023-02-28T23:11:46;17.53;;;13.17;;
5454;SDS011;2750;49.050;9.250;2023-02-28T23:16:51;19.67;;;13.07;;
5454;SDS011;2750;49.050;9.250;2023-02-28T23:21:54;18.00;;;11.60;;
5454;SDS011;2750;49.050;9.250;2023-02-28T23:26:56;16.50;;;11.93;;
5454;SDS011;2750;49.050;9.250;2023-02-28T23:32:00;16.80;;;12.53;;
5454;SDS011;2750;49.050;9.250;2023-02-28T23:37:02;18.33;;;11.93;;
5454;SDS011;2750;49.050;9.250;2023-02-28T23:42:04;15.07;;;11.33;;
5454;SDS011;2750;49.050;9.250;2023-02-28T23:47:07;18.80;;;11.90;;
5454;SDS011;2750;49.050;9.250;2023-02-28T23:52:11;18.87;;;12.27;;
5454;SDS011;2750;49.050;9.250;2023-02-28T23:57:13;16.80;;;11.50;;
